sensor_id;sensor_type;location;lat;lon;timestamp;P1;durP1;ratioP1;P2;durP2;ratioP2
6358;SDS011;3212;51.460;11.868;2022-10-31T00:01:33;11.60;;;5.83;;
6358;SDS011;3212;51.460;11.868;2022-10-31T00:12:08;10.30;;;5.87;;
6358;SDS011;3212;51.460;11.868;2022-10-31T00:19:09;9.73;;;6.17;;
6358;SDS011;3212;51.460;11.868;2022-10-31T00:26:02;9.43;;;6.00;;
6358;SDS011;3212;51.460;11.868;2022-10-31T00:29:24;15.73;;;5.63;;
6358;SDS011;3212;51.460;11.868;2022-10-31T00:36:22;10.60;;;5.47;;
6358;SDS011;3212;51.460;11.868;2022-10-31T00:39:48;8.77;;;5.80;;
6358;SDS011;3212;51.460;11.868;2022-10-31T00:46:50;12.30;;;6.00;;
6358;SDS011;3212;51.460;11.868;2022-10-31T00:57:24;10.67;;;6.87;;
6358;SDS011;3212;51.460;11.868;2022-10-31T01:00:53;11.43;;;6.63;;
6358;SDS011;3212;51.460;11.868;2022-10-31T01:04:21;13.47;;;6.90;;
6358;SDS011;3212;51.460;11.868;2022-10-31T01:07:45;16.30;;;6.40;;
6358;SDS011;3212;51.460;11.868;2022-10-31T01:14:45;10.93;;;6.87;;
6358;SDS011;3212;51.460;11.868;2022-10-31T01:21:48;15.13;;;7.47;;
6358;SDS011;3212;51.460;11.868;2022-10-31T01:28:47;10.20;;;6.53;;
6358;SDS011;3212;51.460;11.868;2022-10-31T01:32:13;12.30;;;5.87;;
6358;SDS011;3212;51.460;11.868;2022-10-31T01:35:36;11.43;;;6.50;;
6358;SDS011;3212;51.460;11.868;2022-10-31T02:11:56;16.90;;;10.10;;
6358;SDS011;3212;51.460;11.868;2022-10-31T02:48:29;14.87;;;8.60;;
6358;SDS011;3212;51.460;11.868;2022-10-31T02:51:51;20.30;;;9.47;;
6358;SDS011;3212;51.460;11.868;2022-10-31T03:02:50;15.17;;;8.33;;
6358;SDS011;3212;51.460;11.868;2022-10-31T03:06:41;13.50;;;7.17;;
6358;SDS011;3212;51.460;11.868;2022-10-31T03:10:31;11.57;;;7.27;;
6358;SDS011;3212;51.460;11.868;2022-10-31T03:14:00;16.37;;;8.27;;
6358;SDS011;3212;51.460;11.868;2022-10-31T03:21:22;12.03;;;7.20;;
6358;SDS011;3212;51.460;11.868;2022-10-31T03:28:35;11.83;;;7.93;;
6358;SDS011;3212;51.460;11.868;2022-10-31T03:31:57;15.83;;;7.13;;
6358;SDS011;3212;51.460;11.868;2022-10-31T03:38:50;12.87;;;7.37;;
6358;SDS011;3212;51.460;11.868;2022-10-31T03:42:14;15.43;;;7.77;;
6358;SDS011;3212;51.460;11.868;2022-10-31T03:45:37;12.60;;;7.47;;
6358;SDS011;3212;51.460;11.868;2022-10-31T03:52:44;12.00;;;7.53;;
6358;SDS011;3212;51.460;11.868;2022-10-31T04:03:10;12.13;;;7.30;;
6358;SDS011;3212;51.460;11.868;2022-10-31T04:06:47;11.40;;;7.40;;
6358;SDS011;3212;51.460;11.868;2022-10-31T04:13:46;12.60;;;6.93;;
6358;SDS011;3212;51.460;11.868;2022-10-31T04:17:13;11.90;;;6.87;;
6358;SDS011;3212;51.460;11.868;2022-10-31T04:24:14;14.47;;;8.57;;
6358;SDS011;3212;51.460;11.868;2022-10-31T04:34:50;16.30;;;8.37;;
6358;SDS011;3212;51.460;11.868;2022-10-31T04:38:17;16.33;;;7.70;;
6358;SDS011;3212;51.460;11.868;2022-10-31T04:41:44;13.93;;;8.17;;
6358;SDS011;3212;51.460;11.868;2022-10-31T05:06:10;16.73;;;8.33;;
6358;SDS011;3212;51.460;11.868;2022-10-31T05:16:55;19.03;;;8.10;;
6358;SDS011;3212;51.460;11.868;2022-10-31T05:20:21;12.53;;;7.97;;
6358;SDS011;3212;51.460;11.868;2022-10-31T05:38:32;15.43;;;7.90;;
6358;SDS011;3212;51.460;11.868;2022-10-31T05:52:27;14.52;;;8.25;;
6358;SDS011;3212;51.460;11.868;2022-10-31T05:55:50;12.57;;;8.30;;
6358;SDS011;3212;51.460;11.868;2022-10-31T06:06:51;14.80;;;9.10;;
6358;SDS011;3212;51.460;11.868;2022-10-31T06:17:58;11.97;;;7.80;;
6358;SDS011;3212;51.460;11.868;2022-10-31T06:21:21;13.90;;;8.40;;
6358;SDS011;3212;51.460;11.868;2022-10-31T06:32:14;13.53;;;8.20;;
6358;SDS011;3212;51.460;11.868;2022-10-31T06:35:36;16.03;;;8.53;;
6358;SDS011;3212;51.460;11.868;2022-10-31T06:39:12;16.03;;;8.50;;
6358;SDS011;3212;51.460;11.868;2022-10-31T06:50:09;16.73;;;7.43;;
6358;SDS011;3212;51.460;11.868;2022-10-31T07:11:36;13.00;;;7.30;;
6358;SDS011;3212;51.460;11.868;2022-10-31T07:15:03;12.95;;;7.47;;
6358;SDS011;3212;51.460;11.868;2022-10-31T07:25:26;14.70;;;7.10;;
6358;SDS011;3212;51.460;11.868;2022-10-31T07:28:52;11.53;;;7.00;;
6358;SDS011;3212;51.460;11.868;2022-10-31T07:35:48;16.93;;;7.33;;
6358;SDS011;3212;51.460;11.868;2022-10-31T07:39:11;11.53;;;7.10;;
6358;SDS011;3212;51.460;11.868;2022-10-31T07:42:42;11.03;;;7.03;;
6358;SDS011;3212;51.460;11.868;2022-10-31T07:46:05;10.93;;;6.90;;
6358;SDS011;3212;51.460;11.868;2022-10-31T07:49:29;12.37;;;7.33;;
6358;SDS011;3212;51.460;11.868;2022-10-31T07:53:02;13.40;;;7.83;;
6358;SDS011;3212;51.460;11.868;2022-10-31T07:59:57;12.90;;;7.53;;
6358;SDS011;3212;51.460;11.868;2022-10-31T08:06:50;17.60;;;7.60;;
6358;SDS011;3212;51.460;11.868;2022-10-31T08:10:36;13.30;;;7.20;;
6358;SDS011;3212;51.460;11.868;2022-10-31T08:13:59;12.00;;;8.00;;
6358;SDS011;3212;51.460;11.868;2022-10-31T08:39:33;13.00;;;8.67;;
6358;SDS011;3212;51.460;11.868;2022-10-31T08:43:12;12.23;;;8.13;;
6358;SDS011;3212;51.460;11.868;2022-10-31T08:46:34;15.47;;;7.93;;
6358;SDS011;3212;51.460;11.868;2022-10-31T08:50:00;12.67;;;7.80;;
6358;SDS011;3212;51.460;11.868;2022-10-31T08:56:55;18.00;;;8.77;;
6358;SDS011;3212;51.460;11.868;2022-10-31T09:00:50;15.33;;;8.67;;
6358;SDS011;3212;51.460;11.868;2022-10-31T09:07:58;19.70;;;9.17;;
6358;SDS011;3212;51.460;11.868;2022-10-31T09:11:22;16.03;;;9.30;;
6358;SDS011;3212;51.460;11.868;2022-10-31T09:14:44;17.93;;;9.73;;
6358;SDS011;3212;51.460;11.868;2022-10-31T09:18:07;18.30;;;9.83;;
6358;SDS011;3212;51.460;11.868;2022-10-31T09:21:29;22.03;;;11.47;;
6358;SDS011;3212;51.460;11.868;2022-10-31T09:24:51;17.03;;;10.83;;
6358;SDS011;3212;51.460;11.868;2022-10-31T09:28:15;25.73;;;11.90;;
6358;SDS011;3212;51.460;11.868;2022-10-31T09:35:34;28.35;;;13.18;;
6358;SDS011;3212;51.460;11.868;2022-10-31T09:39:06;24.97;;;13.00;;
6358;SDS011;3212;51.460;11.868;2022-10-31T09:42:33;24.70;;;12.70;;
6358;SDS011;3212;51.460;11.868;2022-10-31T09:46:06;29.67;;;14.63;;
6358;SDS011;3212;51.460;11.868;2022-10-31T09:49:32;29.20;;;13.90;;
6358;SDS011;3212;51.460;11.868;2022-10-31T09:53:12;27.03;;;15.20;;
6358;SDS011;3212;51.460;11.868;2022-10-31T09:56:33;26.90;;;15.83;;
6358;SDS011;3212;51.460;11.868;2022-10-31T10:07:22;37.70;;;16.00;;
6358;SDS011;3212;51.460;11.868;2022-10-31T10:10:48;28.70;;;15.10;;
6358;SDS011;3212;51.460;11.868;2022-10-31T10:14:12;30.87;;;15.23;;
6358;SDS011;3212;51.460;11.868;2022-10-31T10:17:49;31.53;;;15.87;;
6358;SDS011;3212;51.460;11.868;2022-10-31T10:21:15;31.77;;;15.70;;
6358;SDS011;3212;51.460;11.868;2022-10-31T10:24:45;33.00;;;17.23;;
6358;SDS011;3212;51.460;11.868;2022-10-31T10:28:25;29.83;;;16.43;;
6358;SDS011;3212;51.460;11.868;2022-10-31T10:31:48;33.33;;;16.53;;
6358;SDS011;3212;51.460;11.868;2022-10-31T10:35:14;41.97;;;18.10;;
6358;SDS011;3212;51.460;11.868;2022-10-31T10:38:37;38.80;;;18.87;;
6358;SDS011;3212;51.460;11.868;2022-10-31T10:41:59;35.83;;;17.87;;
6358;SDS011;3212;51.460;11.868;2022-10-31T10:45:39;40.80;;;18.20;;
6358;SDS011;3212;51.460;11.868;2022-10-31T10:52:41;38.87;;;15.30;;
6358;SDS011;3212;51.460;11.868;2022-10-31T10:56:06;35.23;;;17.60;;
6358;SDS011;3212;51.460;11.868;2022-10-31T10:59:39;35.30;;;17.23;;
6358;SDS011;3212;51.460;11.868;2022-10-31T11:06:31;31.53;;;16.17;;
6358;SDS011;3212;51.460;11.868;2022-10-31T11:10:02;26.97;;;15.57;;
6358;SDS011;3212;51.460;11.868;2022-10-31T11:13:20;35.53;;;15.63;;
6358;SDS011;3212;51.460;11.868;2022-10-31T11:17:07;29.80;;;15.93;;
6358;SDS011;3212;51.460;11.868;2022-10-31T11:20:23;32.20;;;16.50;;
6358;SDS011;3212;51.460;11.868;2022-10-31T11:23:48;28.73;;;15.10;;
6358;SDS011;3212;51.460;11.868;2022-10-31T11:27:16;41.53;;;18.20;;
6358;SDS011;3212;51.460;11.868;2022-10-31T11:30:43;30.77;;;16.23;;
6358;SDS011;3212;51.460;11.868;2022-10-31T11:34:06;36.83;;;17.17;;
6358;SDS011;3212;51.460;11.868;2022-10-31T11:37:32;38.37;;;18.00;;
6358;SDS011;3212;51.460;11.868;2022-10-31T11:40:54;31.53;;;16.60;;
6358;SDS011;3212;51.460;11.868;2022-10-31T11:44:18;32.30;;;16.97;;
6358;SDS011;3212;51.460;11.868;2022-10-31T11:47:44;35.30;;;16.27;;
6358;SDS011;3212;51.460;11.868;2022-10-31T11:51:05;27.95;;;14.73;;
6358;SDS011;3212;51.460;11.868;2022-10-31T11:54:29;28.80;;;15.00;;
6358;SDS011;3212;51.460;11.868;2022-10-31T11:57:51;36.00;;;16.83;;
6358;SDS011;3212;51.460;11.868;2022-10-31T12:01:27;33.87;;;16.97;;
6358;SDS011;3212;51.460;11.868;2022-10-31T12:08:31;40.00;;;19.10;;
6358;SDS011;3212;51.460;11.868;2022-10-31T12:12:08;41.97;;;19.27;;
6358;SDS011;3212;51.460;11.868;2022-10-31T12:15:53;32.33;;;17.50;;
6358;SDS011;3212;51.460;11.868;2022-10-31T12:22:58;43.13;;;20.67;;
6358;SDS011;3212;51.460;11.868;2022-10-31T12:26:24;40.97;;;19.70;;
6358;SDS011;3212;51.460;11.868;2022-10-31T12:29:51;37.13;;;19.23;;
6358;SDS011;3212;51.460;11.868;2022-10-31T12:33:21;36.67;;;18.67;;
6358;SDS011;3212;51.460;11.868;2022-10-31T12:43:57;34.83;;;17.70;;
6358;SDS011;3212;51.460;11.868;2022-10-31T12:47:33;36.78;;;18.45;;
6358;SDS011;3212;51.460;11.868;2022-10-31T12:54:41;38.60;;;19.40;;
6358;SDS011;3212;51.460;11.868;2022-10-31T12:58:03;39.13;;;18.20;;
6358;SDS011;3212;51.460;11.868;2022-10-31T13:01:28;31.40;;;17.45;;
6358;SDS011;3212;51.460;11.868;2022-10-31T13:05:06;35.93;;;17.70;;
6358;SDS011;3212;51.460;11.868;2022-10-31T13:08:43;35.70;;;17.80;;
6358;SDS011;3212;51.460;11.868;2022-10-31T13:12:08;37.13;;;18.70;;
6358;SDS011;3212;51.460;11.868;2022-10-31T13:15:32;36.50;;;20.23;;
6358;SDS011;3212;51.460;11.868;2022-10-31T13:22:42;36.13;;;19.30;;
6358;SDS011;3212;51.460;11.868;2022-10-31T13:26:09;33.13;;;18.83;;
6358;SDS011;3212;51.460;11.868;2022-10-31T13:29:33;35.33;;;18.00;;
6358;SDS011;3212;51.460;11.868;2022-10-31T13:40:13;34.17;;;17.17;;
6358;SDS011;3212;51.460;11.868;2022-10-31T13:47:22;35.47;;;20.10;;
6358;SDS011;3212;51.460;11.868;2022-10-31T13:50:43;40.23;;;20.23;;
6358;SDS011;3212;51.460;11.868;2022-10-31T13:54:19;38.00;;;19.00;;
6358;SDS011;3212;51.460;11.868;2022-10-31T13:57:34;39.80;;;19.30;;
6358;SDS011;3212;51.460;11.868;2022-10-31T14:00:58;50.80;;;19.53;;
6358;SDS011;3212;51.460;11.868;2022-10-31T14:04:44;35.20;;;18.23;;
6358;SDS011;3212;51.460;11.868;2022-10-31T14:08:15;40.67;;;21.47;;
6358;SDS011;3212;51.460;11.868;2022-10-31T14:11:30;46.77;;;21.70;;
6358;SDS011;3212;51.460;11.868;2022-10-31T14:14:54;44.60;;;21.90;;
6358;SDS011;3212;51.460;11.868;2022-10-31T14:18:34;45.20;;;21.47;;
6358;SDS011;3212;51.460;11.868;2022-10-31T14:21:57;49.67;;;22.37;;
6358;SDS011;3212;51.460;11.868;2022-10-31T14:28:50;40.10;;;19.57;;
6358;SDS011;3212;51.460;11.868;2022-10-31T14:32:18;49.63;;;25.03;;
6358;SDS011;3212;51.460;11.868;2022-10-31T14:35:46;46.70;;;22.37;;
6358;SDS011;3212;51.460;11.868;2022-10-31T14:39:10;47.00;;;23.73;;
6358;SDS011;3212;51.460;11.868;2022-10-31T14:46:04;47.97;;;23.97;;
6358;SDS011;3212;51.460;11.868;2022-10-31T14:49:48;43.70;;;21.47;;
6358;SDS011;3212;51.460;11.868;2022-10-31T14:53:13;46.40;;;23.53;;
6358;SDS011;3212;51.460;11.868;2022-10-31T14:56:35;46.03;;;21.10;;
6358;SDS011;3212;51.460;11.868;2022-10-31T14:59:59;50.17;;;23.87;;
6358;SDS011;3212;51.460;11.868;2022-10-31T15:03:25;46.80;;;21.53;;
6358;SDS011;3212;51.460;11.868;2022-10-31T15:06:49;52.23;;;23.30;;
6358;SDS011;3212;51.460;11.868;2022-10-31T15:10:19;49.47;;;21.70;;
6358;SDS011;3212;51.460;11.868;2022-10-31T15:13:41;54.13;;;22.53;;
6358;SDS011;3212;51.460;11.868;2022-10-31T15:17:03;45.43;;;21.00;;
6358;SDS011;3212;51.460;11.868;2022-10-31T15:20:26;47.40;;;23.40;;
6358;SDS011;3212;51.460;11.868;2022-10-31T15:23:48;50.13;;;23.10;;
6358;SDS011;3212;51.460;11.868;2022-10-31T15:27:12;45.77;;;21.83;;
6358;SDS011;3212;51.460;11.868;2022-10-31T15:30:35;55.63;;;22.90;;
6358;SDS011;3212;51.460;11.868;2022-10-31T15:34:00;49.70;;;22.87;;
6358;SDS011;3212;51.460;11.868;2022-10-31T15:37:22;57.23;;;24.40;;
6358;SDS011;3212;51.460;11.868;2022-10-31T15:40:50;48.73;;;22.37;;
6358;SDS011;3212;51.460;11.868;2022-10-31T15:44:11;47.00;;;22.67;;
6358;SDS011;3212;51.460;11.868;2022-10-31T15:47:29;52.87;;;23.63;;
6358;SDS011;3212;51.460;11.868;2022-10-31T15:50:53;49.33;;;21.63;;
6358;SDS011;3212;51.460;11.868;2022-10-31T15:54:14;54.00;;;25.40;;
6358;SDS011;3212;51.460;11.868;2022-10-31T15:57:40;60.73;;;26.17;;
6358;SDS011;3212;51.460;11.868;2022-10-31T16:01:03;50.77;;;23.70;;
6358;SDS011;3212;51.460;11.868;2022-10-31T16:04:24;55.00;;;23.87;;
6358;SDS011;3212;51.460;11.868;2022-10-31T16:07:48;52.70;;;24.63;;
6358;SDS011;3212;51.460;11.868;2022-10-31T16:14:53;58.07;;;24.60;;
6358;SDS011;3212;51.460;11.868;2022-10-31T16:18:16;60.43;;;25.53;;
6358;SDS011;3212;51.460;11.868;2022-10-31T16:21:39;52.73;;;25.10;;
6358;SDS011;3212;51.460;11.868;2022-10-31T16:25:08;61.33;;;25.50;;
6358;SDS011;3212;51.460;11.868;2022-10-31T16:28:35;64.87;;;28.60;;
6358;SDS011;3212;51.460;11.868;2022-10-31T16:31:57;66.97;;;28.35;;
6358;SDS011;3212;51.460;11.868;2022-10-31T16:35:26;73.03;;;30.47;;
6358;SDS011;3212;51.460;11.868;2022-10-31T16:38:46;72.33;;;30.97;;
6358;SDS011;3212;51.460;11.868;2022-10-31T16:45:37;72.40;;;30.53;;
6358;SDS011;3212;51.460;11.868;2022-10-31T16:49:00;77.37;;;32.73;;
6358;SDS011;3212;51.460;11.868;2022-10-31T16:52:23;82.90;;;33.00;;
6358;SDS011;3212;51.460;11.868;2022-10-31T16:55:52;87.20;;;33.27;;
6358;SDS011;3212;51.460;11.868;2022-10-31T16:59:14;102.60;;;34.97;;
6358;SDS011;3212;51.460;11.868;2022-10-31T17:02:37;82.33;;;33.00;;
6358;SDS011;3212;51.460;11.868;2022-10-31T17:05:59;80.90;;;33.73;;
6358;SDS011;3212;51.460;11.868;2022-10-31T17:09:21;78.13;;;32.90;;
6358;SDS011;3212;51.460;11.868;2022-10-31T17:12:45;83.70;;;35.13;;
6358;SDS011;3212;51.460;11.868;2022-10-31T17:16:07;70.30;;;33.00;;
6358;SDS011;3212;51.460;11.868;2022-10-31T17:19:29;76.80;;;33.13;;
6358;SDS011;3212;51.460;11.868;2022-10-31T17:22:52;85.53;;;36.67;;
6358;SDS011;3212;51.460;11.868;2022-10-31T17:26:15;79.03;;;33.90;;
6358;SDS011;3212;51.460;11.868;2022-10-31T17:29:37;78.33;;;34.30;;
6358;SDS011;3212;51.460;11.868;2022-10-31T17:33:00;77.97;;;32.37;;
6358;SDS011;3212;51.460;11.868;2022-10-31T17:36:23;75.60;;;32.10;;
6358;SDS011;3212;51.460;11.868;2022-10-31T17:39:46;89.00;;;34.43;;
6358;SDS011;3212;51.460;11.868;2022-10-31T17:43:08;75.77;;;31.70;;
6358;SDS011;3212;51.460;11.868;2022-10-31T17:46:31;84.10;;;32.37;;
6358;SDS011;3212;51.460;11.868;2022-10-31T17:49:54;72.93;;;32.40;;
6358;SDS011;3212;51.460;11.868;2022-10-31T17:53:16;86.43;;;34.63;;
6358;SDS011;3212;51.460;11.868;2022-10-31T17:56:39;82.50;;;32.73;;
6358;SDS011;3212;51.460;11.868;2022-10-31T18:00:03;84.70;;;32.03;;
6358;SDS011;3212;51.460;11.868;2022-10-31T18:03:26;73.30;;;31.80;;
6358;SDS011;3212;51.460;11.868;2022-10-31T18:06:49;73.70;;;32.13;;
6358;SDS011;3212;51.460;11.868;2022-10-31T18:10:13;89.83;;;32.90;;
6358;SDS011;3212;51.460;11.868;2022-10-31T18:13:36;79.37;;;33.63;;
6358;SDS011;3212;51.460;11.868;2022-10-31T18:17:00;77.53;;;31.33;;
6358;SDS011;3212;51.460;11.868;2022-10-31T18:20:22;86.43;;;32.83;;
6358;SDS011;3212;51.460;11.868;2022-10-31T18:23:44;90.00;;;31.10;;
6358;SDS011;3212;51.460;11.868;2022-10-31T18:27:08;68.07;;;31.40;;
6358;SDS011;3212;51.460;11.868;2022-10-31T18:30:30;124.93;;;32.47;;
6358;SDS011;3212;51.460;11.868;2022-10-31T18:33:53;60.33;;;29.07;;
6358;SDS011;3212;51.460;11.868;2022-10-31T18:37:15;72.30;;;32.50;;
6358;SDS011;3212;51.460;11.868;2022-10-31T18:40:39;66.33;;;30.03;;
6358;SDS011;3212;51.460;11.868;2022-10-31T18:44:04;71.00;;;31.67;;
6358;SDS011;3212;51.460;11.868;2022-10-31T18:47:26;99.13;;;31.90;;
6358;SDS011;3212;51.460;11.868;2022-10-31T18:50:48;70.23;;;32.47;;
6358;SDS011;3212;51.460;11.868;2022-10-31T18:54:10;70.30;;;31.40;;
6358;SDS011;3212;51.460;11.868;2022-10-31T18:57:33;62.03;;;29.17;;
6358;SDS011;3212;51.460;11.868;2022-10-31T19:00:55;56.57;;;28.03;;
6358;SDS011;3212;51.460;11.868;2022-10-31T19:04:18;72.50;;;33.60;;
6358;SDS011;3212;51.460;11.868;2022-10-31T19:07:45;65.07;;;33.10;;
6358;SDS011;3212;51.460;11.868;2022-10-31T19:11:09;65.20;;;32.37;;
6358;SDS011;3212;51.460;11.868;2022-10-31T19:14:31;67.57;;;32.30;;
6358;SDS011;3212;51.460;11.868;2022-10-31T19:17:54;64.17;;;32.83;;
6358;SDS011;3212;51.460;11.868;2022-10-31T19:21:17;61.00;;;31.03;;
6358;SDS011;3212;51.460;11.868;2022-10-31T19:24:41;64.23;;;31.20;;
6358;SDS011;3212;51.460;11.868;2022-10-31T19:28:03;67.60;;;33.40;;
6358;SDS011;3212;51.460;11.868;2022-10-31T19:31:26;56.53;;;29.03;;
6358;SDS011;3212;51.460;11.868;2022-10-31T19:34:48;58.83;;;33.03;;
6358;SDS011;3212;51.460;11.868;2022-10-31T19:38:12;56.23;;;31.10;;
6358;SDS011;3212;51.460;11.868;2022-10-31T19:41:34;64.23;;;31.10;;
6358;SDS011;3212;51.460;11.868;2022-10-31T19:44:56;58.03;;;28.97;;
6358;SDS011;3212;51.460;11.868;2022-10-31T19:48:19;57.10;;;30.17;;
6358;SDS011;3212;51.460;11.868;2022-10-31T19:51:42;55.57;;;29.07;;
6358;SDS011;3212;51.460;11.868;2022-10-31T19:55:04;46.20;;;26.87;;
6358;SDS011;3212;51.460;11.868;2022-10-31T19:58:27;49.60;;;26.60;;
6358;SDS011;3212;51.460;11.868;2022-10-31T20:01:49;50.47;;;26.80;;
6358;SDS011;3212;51.460;11.868;2022-10-31T20:05:12;44.43;;;24.77;;
6358;SDS011;3212;51.460;11.868;2022-10-31T20:08:34;48.03;;;26.83;;
6358;SDS011;3212;51.460;11.868;2022-10-31T20:11:57;52.13;;;27.30;;
6358;SDS011;3212;51.460;11.868;2022-10-31T20:15:20;42.43;;;24.33;;
6358;SDS011;3212;51.460;11.868;2022-10-31T20:18:42;61.13;;;24.20;;
6358;SDS011;3212;51.460;11.868;2022-10-31T20:22:05;53.40;;;26.50;;
6358;SDS011;3212;51.460;11.868;2022-10-31T20:25:28;49.38;;;28.08;;
6358;SDS011;3212;51.460;11.868;2022-10-31T20:28:50;57.10;;;30.27;;
6358;SDS011;3212;51.460;11.868;2022-10-31T20:32:12;53.53;;;29.90;;
6358;SDS011;3212;51.460;11.868;2022-10-31T20:35:35;56.53;;;25.20;;
6358;SDS011;3212;51.460;11.868;2022-10-31T20:38:58;52.47;;;25.00;;
6358;SDS011;3212;51.460;11.868;2022-10-31T20:42:20;45.00;;;23.47;;
6358;SDS011;3212;51.460;11.868;2022-10-31T20:45:43;51.23;;;24.60;;
6358;SDS011;3212;51.460;11.868;2022-10-31T20:49:07;52.93;;;24.53;;
6358;SDS011;3212;51.460;11.868;2022-10-31T20:52:33;37.60;;;22.37;;
6358;SDS011;3212;51.460;11.868;2022-10-31T20:59:35;37.20;;;21.93;;
6358;SDS011;3212;51.460;11.868;2022-10-31T21:02:58;43.43;;;23.90;;
6358;SDS011;3212;51.460;11.868;2022-10-31T21:06:25;40.53;;;23.57;;
6358;SDS011;3212;51.460;11.868;2022-10-31T21:09:47;40.73;;;22.73;;
6358;SDS011;3212;51.460;11.868;2022-10-31T21:13:10;36.88;;;21.85;;
6358;SDS011;3212;51.460;11.868;2022-10-31T21:16:32;41.70;;;23.07;;
6358;SDS011;3212;51.460;11.868;2022-10-31T21:23:31;35.60;;;20.00;;
6358;SDS011;3212;51.460;11.868;2022-10-31T21:30:23;36.42;;;20.65;;
6358;SDS011;3212;51.460;11.868;2022-10-31T21:37:13;35.20;;;21.17;;
6358;SDS011;3212;51.460;11.868;2022-10-31T21:40:36;36.50;;;20.77;;
6358;SDS011;3212;51.460;11.868;2022-10-31T21:43:59;32.07;;;20.20;;
6358;SDS011;3212;51.460;11.868;2022-10-31T21:47:21;38.50;;;21.10;;
6358;SDS011;3212;51.460;11.868;2022-10-31T21:50:44;38.43;;;20.87;;
6358;SDS011;3212;51.460;11.868;2022-10-31T21:54:07;37.47;;;21.53;;
6358;SDS011;3212;51.460;11.868;2022-10-31T21:57:34;37.77;;;20.90;;
6358;SDS011;3212;51.460;11.868;2022-10-31T22:01:01;34.20;;;21.53;;
6358;SDS011;3212;51.460;11.868;2022-10-31T22:04:23;35.37;;;20.60;;
6358;SDS011;3212;51.460;11.868;2022-10-31T22:07:45;38.67;;;21.67;;
6358;SDS011;3212;51.460;11.868;2022-10-31T22:11:09;31.93;;;19.60;;
6358;SDS011;3212;51.460;11.868;2022-10-31T22:14:30;34.50;;;19.87;;
6358;SDS011;3212;51.460;11.868;2022-10-31T22:17:53;30.90;;;18.60;;
6358;SDS011;3212;51.460;11.868;2022-10-31T22:21:16;33.73;;;20.00;;
6358;SDS011;3212;51.460;11.868;2022-10-31T22:24:38;33.30;;;19.53;;
6358;SDS011;3212;51.460;11.868;2022-10-31T22:28:00;32.57;;;19.50;;
6358;SDS011;3212;51.460;11.868;2022-10-31T22:31:24;33.13;;;19.67;;
6358;SDS011;3212;51.460;11.868;2022-10-31T22:34:45;29.10;;;18.33;;
6358;SDS011;3212;51.460;11.868;2022-10-31T22:38:09;35.27;;;18.87;;
6358;SDS011;3212;51.460;11.868;2022-10-31T22:41:32;30.23;;;17.30;;
6358;SDS011;3212;51.460;11.868;2022-10-31T22:44:54;36.10;;;19.67;;
6358;SDS011;3212;51.460;11.868;2022-10-31T22:48:17;35.05;;;18.70;;
6358;SDS011;3212;51.460;11.868;2022-10-31T22:51:40;31.03;;;19.87;;
6358;SDS011;3212;51.460;11.868;2022-10-31T22:58:32;33.83;;;19.27;;
6358;SDS011;3212;51.460;11.868;2022-10-31T23:01:53;36.27;;;20.03;;
6358;SDS011;3212;51.460;11.868;2022-10-31T23:12:15;41.43;;;22.97;;
6358;SDS011;3212;51.460;11.868;2022-10-31T23:19:27;39.27;;;22.90;;
6358;SDS011;3212;51.460;11.868;2022-10-31T23:22:49;45.27;;;23.23;;
6358;SDS011;3212;51.460;11.868;2022-10-31T23:29:48;43.33;;;23.33;;
6358;SDS011;3212;51.460;11.868;2022-10-31T23:33:09;44.60;;;23.77;;
6358;SDS011;3212;51.460;11.868;2022-10-31T23:36:33;41.03;;;22.20;;
6358;SDS011;3212;51.460;11.868;2022-10-31T23:39:56;51.27;;;23.90;;
6358;SDS011;3212;51.460;11.868;2022-10-31T23:43:19;48.50;;;23.27;;
6358;SDS011;3212;51.460;11.868;2022-10-31T23:46:41;52.23;;;23.40;;
6358;SDS011;3212;51.460;11.868;2022-10-31T23:50:05;58.30;;;23.30;;
6358;SDS011;3212;51.460;11.868;2022-10-31T23:53:27;49.50;;;21.67;;
6358;SDS011;3212;51.460;11.868;2022-10-31T23:56:51;59.23;;;24.83;;
